Palermo, California
Current Conditions -  °F | °C
As of 4:53 PM on Saturday 22 Nov 2014 (Local Time) from KOVE Reporting Station
Clear Clear  
Wind Chill: 56°   Ceiling: Unl
Heat Index: 56°   Visibility: 8mi
Dew Point: 53°   Wind: 3mph
Humidity: 90%   Direction: 150°SSE
Pressure: 30.16"   Gusts: NA
Location:  39.44°N, 121.54°W
Report Text: KOVE 230053Z AUTO 15003KT 8SM CLR 13/12 A3016 RMK AO2 SLP214 T01330117
Loading
Personal Weather Stations






























Interactive Weather Map New forecast layout! Learn more

10-Day Weather Forecast

Advertisements
Track Severe Weather on mobile